Time;durP1;ratioP1;P1;durP2;ratioP2;P2;SDS_P1;SDS_P2;PMS_P1;PMS_P2;Temp;Humidity;BMP_temperature;BMP_pressure;BME280_temperature;BME280_humidity;BME280_pressure;Samples;Min_cycle;Max_cycle;Signal;HPM_P1;HPM_P2
2023/04/07 06:27:23;;;;;;;6.23;4.90;;;3.80;99.90;;;;;;5132780;27;20602;-77
2023/04/07 06:33:24;;;;;;;8.43;5.37;;;;;;;;;;5131970;27;20787;-77
2023/04/07 06:38:31;;;;;;;6.73;5.27;;;4.20;99.90;;;;;;5131789;27;20271;-77
2023/04/07 06:43:34;;;;;;;7.60;5.07;;;;;;;;;;5131793;27;20283;-78
2023/04/07 06:48:20;;;;;;;8.07;5.37;;;;;;;;;;5132638;27;20626;-77
2023/04/07 06:52:43;;;;;;;12.00;5.77;;;;;;;;;;5133552;27;20289;-78
2023/04/07 06:56:49;;;;;;;7.63;4.97;;;4.50;99.90;;;;;;5135738;27;20603;-78
2023/04/07 07:00:42;;;;;;;12.77;7.90;;;4.70;99.90;;;;;;5135019;27;20268;-78
2023/04/07 07:04:23;;;;;;;9.37;6.17;;;;;;;;;;5140788;27;20277;-80
2023/04/07 07:08:29;;;;;;;4.87;3.93;;;4.80;99.90;;;;;;5138633;27;20263;-79
2023/04/07 07:12:14;;;;;;;6.07;4.90;;;5.10;99.90;;;;;;5138536;27;20297;-78
2023/04/07 07:16:17;;;;;;;9.53;5.97;;;5.30;99.90;;;;;;5078754;28;20525;-78
2023/04/07 07:18:43;;;;;;;6.97;5.73;;;5.60;99.90;;;;;;5078998;28;20215;-79
2023/04/07 07:21:08;;;;;;;6.57;5.03;;;6.50;99.90;;;;;;5077836;28;20209;-79
2023/04/07 07:23:34;;;;;;;11.60;5.07;;;6.90;99.90;;;;;;5077809;28;20190;-79
2023/04/07 07:26:17;;;;;;;7.50;5.50;;;6.80;99.90;;;;;;5013234;28;20593;-78
2023/04/07 07:31:13;;;;;;;5.90;5.07;;;7.00;99.90;;;;;;5137097;27;20745;-79
2023/04/07 07:33:42;;;;;;;8.43;4.90;;;7.90;99.90;;;;;;5129638;28;20205;-78
2023/04/07 07:36:08;;;;;;;6.60;4.90;;;8.50;99.90;;;;;;5133324;28;20662;-78
2023/04/07 07:38:34;;;;;;;6.70;5.00;;;8.80;99.90;;;;;;5134180;28;20209;-79
2023/04/07 07:40:59;;;;;;;5.10;4.13;;;8.80;99.90;;;;;;5135759;28;20181;-78
2023/04/07 07:43:25;;;;;;;6.70;4.50;;;9.70;99.90;;;;;;5136798;28;20200;-78
2023/04/07 07:45:51;;;;;;;6.07;4.67;;;9.80;99.90;;;;;;5137966;27;20227;-79
2023/04/07 07:48:16;;;;;;;6.17;4.77;;;10.10;99.90;;;;;;5137680;27;20175;-79
2023/04/07 07:50:43;;;;;;;6.57;4.33;;;10.70;99.90;;;;;;5132424;27;20199;-78
2023/04/07 07:53:09;;;;;;;4.73;3.77;;;11.30;99.90;;;;;;5137699;27;20187;-79
2023/04/07 07:55:35;;;;;;;5.53;4.53;;;12.00;99.30;;;;;;5132696;28;20254;-78
2023/04/07 07:58:00;;;;;;;6.93;4.40;;;13.00;94.90;;;;;;5133769;27;20171;-79
2023/04/07 08:00:26;;;;;;;5.00;4.30;;;13.20;93.40;;;;;;5136549;27;20627;-78
2023/04/07 08:02:52;;;;;;;7.33;4.10;;;13.50;93.10;;;;;;5137612;27;20259;-79
2023/04/07 08:05:17;;;;;;;6.03;4.20;;;13.90;90.60;;;;;;5137101;27;20171;-79
2023/04/07 08:07:43;;;;;;;5.57;3.47;;;13.70;87.90;;;;;;5135800;28;20174;-79
2023/04/07 08:10:09;;;;;;;5.90;3.90;;;13.40;84.20;;;;;;5134946;28;20217;-79
2023/04/07 08:12:34;;;;;;;3.70;3.30;;;13.40;85.10;;;;;;5137168;27;20183;-79
2023/04/07 08:15:01;;;;;;;6.77;4.97;;;13.60;82.80;;;;;;5137513;27;20496;-79
2023/04/07 08:17:27;;;;;;;5.00;3.50;;;13.90;81.50;;;;;;5137284;27;20164;-79
2023/04/07 08:19:52;;;;;;;8.77;6.33;;;14.10;79.90;;;;;;5135524;28;20180;-79
2023/04/07 08:22:21;;;;;;;4.10;3.40;;;14.40;80.20;;;;;;5137330;27;20198;-79
2023/04/07 08:24:46;;;;;;;5.47;3.60;;;14.80;76.90;;;;;;5136638;27;20183;-79
2023/04/07 08:27:13;;;;;;;4.57;2.93;;;14.80;77.10;;;;;;5136534;27;20177;-80
2023/04/07 08:29:38;;;;;;;4.60;3.60;;;14.90;74.70;;;;;;5136326;27;20608;-79
2023/04/07 08:32:04;;;;;;;3.43;2.90;;;15.10;74.60;;;;;;5134873;27;20195;-78
2023/04/07 08:34:30;;;;;;;6.60;3.60;;;15.80;76.40;;;;;;5131103;28;20176;-79
2023/04/07 08:36:55;;;;;;;6.20;3.17;;;15.80;72.60;;;;;;5136407;27;20170;-78
2023/04/07 08:39:24;;;;;;;4.17;3.57;;;14.30;73.50;;;;;;5134692;28;20186;-79
2023/04/07 08:41:50;;;;;;;4.13;3.17;;;13.60;78.40;;;;;;5124695;28;20199;-78
2023/04/07 08:44:16;;;;;;;4.60;2.80;;;13.70;78.40;;;;;;5122869;27;20175;-79
2023/04/07 08:46:42;;;;;;;2.87;2.63;;;13.60;81.60;;;;;;5121400;28;20265;-78
2023/04/07 08:49:12;;;;;;;3.37;2.80;;;13.50;85.20;;;;;;5118935;28;20203;-78
2023/04/07 08:51:47;;;;;;;4.33;3.00;;;13.10;82.80;;;;;;5115771;28;20171;-77
2023/04/07 08:54:17;;;;;;;3.23;2.93;;;12.40;84.00;;;;;;5120037;28;20284;-79
2023/04/07 08:56:43;;;;;;;3.93;3.10;;;11.70;84.10;;;;;;5121172;28;20158;-79
2023/04/07 08:59:14;;;;;;;3.23;2.83;;;11.30;85.10;;;;;;5119105;28;20635;-78
2023/04/07 09:01:40;;;;;;;4.13;3.07;;;10.90;87.00;;;;;;5118431;28;20211;-79
2023/04/07 09:04:07;;;;;;;4.87;3.10;;;10.80;89.10;;;;;;5117919;28;20230;-78
2023/04/07 09:06:34;;;;;;;3.60;3.13;;;10.80;90.50;;;;;;5115717;28;20223;-78
2023/04/07 09:09:06;;;;;;;4.57;3.17;;;10.90;91.90;;;;;;5117007;28;20172;-78
2023/04/07 09:11:36;;;;;;;3.77;3.00;;;11.00;91.20;;;;;;5116940;28;20173;-78
2023/04/07 09:14:02;;;;;;;3.73;3.13;;;10.90;90.70;;;;;;5115775;28;20192;-78
2023/04/07 09:16:30;;;;;;;5.63;3.93;;;10.80;92.00;;;;;;5116755;28;20170;-76
2023/04/07 09:18:57;;;;;;;4.53;3.23;;;10.70;92.90;;;;;;5114928;28;20173;-77
2023/04/07 09:21:22;;;;;;;6.13;3.80;;;10.60;93.80;;;;;;5115965;28;20172;-77
2023/04/07 09:23:49;;;;;;;11.07;6.20;;;10.60;93.70;;;;;;5115874;28;20247;-77
2023/04/07 09:26:20;;;;;;;7.47;4.10;;;10.60;94.00;;;;;;5115965;28;20738;-77
2023/04/07 09:28:56;;;;;;;4.93;3.87;;;10.50;94.00;;;;;;5115840;28;20168;-77
2023/04/07 09:31:25;;;;;;;4.00;3.13;;;10.50;94.90;;;;;;5116295;28;20168;-78
2023/04/07 09:33:52;;;;;;;8.33;6.67;;;10.60;94.00;;;;;;5114586;28;20274;-78
2023/04/07 09:36:18;;;;;;;5.67;3.83;;;10.80;94.90;;;;;;5116449;28;20175;-78
2023/04/07 09:38:45;;;;;;;7.10;4.07;;;11.40;94.30;;;;;;5114980;28;20200;-78
2023/04/07 09:41:15;;;;;;;4.20;3.53;;;11.70;93.90;;;;;;5116650;28;20242;-78
2023/04/07 09:43:45;;;;;;;6.80;3.83;;;12.20;93.50;;;;;;5117465;28;20663;-78
2023/04/07 09:46:16;;;;;;;7.00;4.00;;;12.20;94.20;;;;;;5115248;28;20172;-78
2023/04/07 09:48:44;;;;;;;4.43;3.80;;;11.90;93.90;;;;;;5115782;28;20545;-79
2023/04/07 09:51:12;;;;;;;5.93;3.57;;;11.70;93.30;;;;;;5118269;28;20204;-79
2023/04/07 09:53:51;;;;;;;5.67;4.20;;;11.40;92.80;;;;;;5115707;28;20610;-78
2023/04/07 09:56:21;;;;;;;4.67;3.50;;;11.30;94.60;;;;;;5117285;28;20263;-80
2023/04/07 09:58:50;;;;;;;8.50;5.00;;;11.10;94.20;;;;;;5118914;28;20173;-78
2023/04/07 10:01:16;;;;;;;6.23;4.30;;;10.90;94.20;;;;;;5115567;28;20183;-80
2023/04/07 10:03:42;;;;;;;4.73;3.87;;;10.90;95.00;;;;;;5116039;28;20219;-78
2023/04/07 10:06:09;;;;;;;5.03;3.80;;;10.90;95.30;;;;;;5116227;28;20600;-78
2023/04/07 10:08:38;;;;;;;12.00;7.67;;;10.90;94.90;;;;;;5116047;28;20247;-77
2023/04/07 10:11:05;;;;;;;4.27;3.87;;;10.90;94.70;;;;;;5115624;28;20195;-78
2023/04/07 10:13:33;;;;;;;5.00;4.00;;;10.80;93.60;;;;;;5114968;28;20620;-78
2023/04/07 10:16:01;;;;;;;5.77;3.40;;;11.00;95.00;;;;;;5115784;28;20176;-77
2023/04/07 10:18:31;;;;;;;4.97;3.97;;;11.00;94.80;;;;;;5114844;28;20233;-78
2023/04/07 10:21:02;;;;;;;8.27;4.73;;;10.90;93.00;;;;;;5115479;28;20159;-77
2023/04/07 10:23:57;;;;;;;4.60;3.63;;;10.70;93.10;;;;;;5114671;28;20656;-77
2023/04/07 10:26:26;;;;;;;4.37;3.13;;;10.80;95.40;;;;;;5113252;28;20493;-77
2023/04/07 10:28:59;;;;;;;5.33;3.70;;;11.00;95.10;;;;;;5114551;28;20653;-78
2023/04/07 10:31:25;;;;;;;4.67;3.80;;;11.60;94.20;;;;;;5114800;28;20163;-78
2023/04/07 10:33:52;;;;;;;3.77;3.30;;;12.10;92.20;;;;;;5114877;28;20273;-78
2023/04/07 10:36:20;;;;;;;4.00;3.60;;;12.20;92.50;;;;;;5115073;28;20299;-78
2023/04/07 10:39:07;;;;;;;6.73;3.70;;;11.90;94.10;;;;;;5115411;28;20671;-78
2023/04/07 10:41:38;;;;;;;6.03;3.60;;;11.80;94.00;;;;;;5115526;28;20767;-78
2023/04/07 10:44:07;;;;;;;5.23;4.00;;;11.80;94.80;;;;;;5115814;28;20653;-78
2023/04/07 10:47:04;;;;;;;4.97;3.87;;;11.80;95.10;;;;;;5115633;28;20176;-79
2023/04/07 10:49:30;;;;;;;4.43;3.40;;;11.70;94.30;;;;;;5098099;28;20211;-78
2023/04/07 10:52:11;;;;;;;4.40;3.60;;;11.50;94.20;;;;;;5115453;28;20279;-79
2023/04/07 10:54:40;;;;;;;4.63;3.60;;;11.50;94.70;;;;;;5113858;28;20171;-78
2023/04/07 10:57:13;;;;;;;5.50;3.37;;;11.40;95.10;;;;;;5114579;28;20637;-78
2023/04/07 11:00:08;;;;;;;4.30;3.80;;;11.30;96.30;;;;;;5113587;28;20263;-78
2023/04/07 11:02:34;;;;;;;4.17;3.47;;;11.30;96.20;;;;;;5114761;28;20188;-78
2023/04/07 11:05:01;;;;;;;5.13;3.17;;;11.40;94.90;;;;;;5114899;28;20175;-78
2023/04/07 11:07:53;;;;;;;5.20;3.43;;;11.30;94.00;;;;;;5114925;28;20676;-78
2023/04/07 11:10:20;;;;;;;3.57;3.17;;;11.40;95.40;;;;;;5114438;28;20196;-78
2023/04/07 11:12:58;;;;;;;4.53;3.27;;;11.40;94.30;;;;;;5114580;28;20187;-77
2023/04/07 11:15:24;;;;;;;6.03;3.43;;;11.40;95.70;;;;;;5114799;28;20563;-78
2023/04/07 11:18:13;;;;;;;5.87;3.40;;;11.40;95.90;;;;;;5115777;28;20179;-77
2023/04/07 11:20:47;;;;;;;4.10;3.53;;;11.40;95.50;;;;;;5113281;28;20224;-78
2023/04/07 11:23:17;;;;;;;3.97;3.17;;;11.50;95.20;;;;;;5113070;28;20656;-78
2023/04/07 11:25:45;;;;;;;4.63;3.47;;;11.30;95.40;;;;;;5113268;28;20179;-77
2023/04/07 11:28:12;;;;;;;6.77;3.20;;;11.30;97.20;;;;;;5113020;28;20291;-77
2023/04/07 11:30:43;;;;;;;5.27;3.20;;;11.30;96.20;;;;;;5114114;28;20199;-77
2023/04/07 11:33:13;;;;;;;5.67;3.20;;;11.40;96.70;;;;;;5114030;28;20179;-77
2023/04/07 11:35:52;;;;;;;5.17;3.00;;;11.50;96.60;;;;;;5113982;28;20224;-78
2023/04/07 11:38:19;;;;;;;4.73;3.30;;;11.40;96.60;;;;;;5114127;28;20160;-77
2023/04/07 11:40:46;;;;;;;7.77;6.13;;;11.50;96.00;;;;;;5113247;28;20183;-77
2023/04/07 11:43:24;;;;;;;5.30;3.90;;;11.30;97.40;;;;;;5113697;28;20293;-78
2023/04/07 11:46:06;;;;;;;11.37;9.50;;;11.20;98.40;;;;;;5115155;28;20171;-78
2023/04/07 11:48:33;;;;;;;5.07;3.90;;;10.90;99.60;;;;;;5114428;28;20198;-78
2023/04/07 11:51:00;;;;;;;5.53;3.33;;;10.90;99.30;;;;;;5113986;28;20199;-78
2023/04/07 11:53:39;;;;;;;7.53;6.73;;;11.00;99.90;;;;;;5113074;28;20764;-78
2023/04/07 11:56:08;;;;;;;6.77;3.80;;;11.10;99.90;;;;;;5114452;28;20148;-77
2023/04/07 11:58:40;;;;;;;5.57;4.67;;;11.30;99.90;;;;;;5114229;28;20183;-77
2023/04/07 12:01:07;;;;;;;4.90;3.50;;;11.50;99.70;;;;;;5114020;28;20152;-77
2023/04/07 12:03:35;;;;;;;6.87;3.50;;;11.60;99.50;;;;;;5112371;28;20562;-77
2023/04/07 12:06:02;;;;;;;7.77;4.10;;;11.60;99.40;;;;;;5112466;28;20171;-77
2023/04/07 12:08:41;;;;;;;6.57;5.23;;;11.70;98.80;;;;;;5113691;28;20277;-77
2023/04/07 12:11:08;;;;;;;5.03;2.73;;;11.60;98.60;;;;;;5113940;28;20550;-77
2023/04/07 12:13:37;;;;;;;4.73;2.67;;;11.60;98.90;;;;;;5113873;28;20613;-78
2023/04/07 12:16:03;;;;;;;4.27;2.63;;;11.70;99.20;;;;;;5114244;28;20172;-77
2023/04/07 12:18:30;;;;;;;4.17;2.40;;;11.80;99.90;;;;;;5117999;28;20171;-77
2023/04/07 12:20:57;;;;;;;3.43;2.23;;;11.90;99.80;;;;;;5115944;28;20171;-77
2023/04/07 12:23:23;;;;;;;2.37;1.90;;;12.10;99.20;;;;;;5117479;28;20214;-77
2023/04/07 12:25:49;;;;;;;3.43;1.60;;;12.30;99.70;;;;;;5116453;28;20637;-78
2023/04/07 12:28:14;;;;;;;3.30;1.50;;;12.30;94.40;;;;;;5117706;28;20523;-79
2023/04/07 12:30:41;;;;;;;2.17;1.40;;;12.50;93.30;;;;;;5120202;28;20627;-78
2023/04/07 12:33:06;;;;;;;43.30;27.97;;;13.20;92.00;;;;;;5119413;28;20194;-78
2023/04/07 12:35:32;;;;;;;12.67;10.03;;;14.40;92.80;;;;;;5122126;28;20180;-79
2023/04/07 12:37:58;;;;;;;5.07;3.37;;;16.20;86.20;;;;;;5118713;28;20167;-78
2023/04/07 12:40:23;;;;;;;8.27;5.80;;;17.50;82.80;;;;;;5120326;28;20198;-81
2023/04/07 12:42:49;;;;;;;4.60;2.00;;;18.40;81.50;;;;;;5120543;28;20238;-78
2023/04/07 12:45:15;;;;;;;3.00;2.00;;;18.30;75.90;;;;;;5120643;28;20178;-80
2023/04/07 12:47:42;;;;;;;2.90;2.40;;;16.90;77.60;;;;;;5120462;28;20191;-80
2023/04/07 12:50:07;;;;;;;2.90;1.93;;;15.50;82.10;;;;;;5120423;28;20210;-80
2023/04/07 12:52:33;;;;;;;7.23;1.90;;;14.80;82.80;;;;;;5121215;28;20191;-81
2023/04/07 12:54:59;;;;;;;3.27;2.17;;;13.60;86.50;;;;;;5117780;28;20627;-78
2023/04/07 12:57:24;;;;;;;2.80;2.00;;;12.90;85.60;;;;;;5117464;28;20702;-79
2023/04/07 12:59:52;;;;;;;23.23;6.63;;;12.60;88.40;;;;;;5118344;28;20174;-79
2023/04/07 13:02:17;;;;;;;6.33;4.73;;;12.40;91.60;;;;;;5120854;28;20193;-79
2023/04/07 13:04:45;;;;;;;6.93;3.17;;;12.30;93.20;;;;;;5120375;28;20167;-79
2023/04/07 13:07:14;;;;;;;7.40;3.27;;;12.20;93.70;;;;;;5115995;28;20301;-78
2023/04/07 13:09:42;;;;;;;5.67;3.80;;;12.10;95.00;;;;;;5117788;28;20193;-79
2023/04/07 13:12:11;;;;;;;4.50;2.90;;;11.70;94.80;;;;;;5120176;28;20210;-79
2023/04/07 13:14:41;;;;;;;5.40;4.30;;;11.70;97.10;;;;;;5117444;28;20632;-77
2023/04/07 13:17:07;;;;;;;6.33;3.67;;;11.60;96.60;;;;;;5118117;28;20168;-78
2023/04/07 13:19:33;;;;;;;6.27;2.50;;;11.50;95.80;;;;;;5117208;28;20171;-77
2023/04/07 13:21:59;;;;;;;3.80;2.30;;;11.50;95.60;;;;;;5117572;28;20184;-79
2023/04/07 13:24:26;;;;;;;3.30;2.30;;;11.50;97.00;;;;;;5117700;28;20171;-81
2023/04/07 13:26:52;;;;;;;2.47;2.20;;;11.30;98.00;;;;;;5117193;28;20202;-78
2023/04/07 13:29:17;;;;;;;3.13;2.50;;;11.10;97.30;;;;;;5116678;28;20629;-78
2023/04/07 13:31:47;;;;;;;3.90;2.73;;;11.00;98.90;;;;;;5116516;28;20527;-78
2023/04/07 13:34:13;;;;;;;3.67;2.87;;;11.00;99.30;;;;;;5119600;28;20176;-77
2023/04/07 13:36:39;;;;;;;3.00;2.70;;;10.90;99.90;;;;;;5119406;28;20200;-78
2023/04/07 13:39:05;;;;;;;3.23;2.80;;;11.00;99.90;;;;;;5121070;28;20212;-78
2023/04/07 13:41:31;;;;;;;4.93;3.00;;;11.10;99.90;;;;;;5116844;28;20244;-78
2023/04/07 13:43:57;;;;;;;4.33;2.77;;;11.00;99.30;;;;;;5117042;28;20206;-78
2023/04/07 13:46:25;;;;;;;3.90;2.70;;;10.90;99.90;;;;;;5116321;28;20175;-78
2023/04/07 13:48:50;;;;;;;6.43;3.13;;;10.90;99.90;;;;;;5114811;28;20624;-78
2023/04/07 13:51:17;;;;;;;3.50;2.53;;;10.90;99.90;;;;;;5114155;28;20206;-78
2023/04/07 13:53:42;;;;;;;4.40;2.80;;;10.90;99.50;;;;;;5116320;28;20188;-78
2023/04/07 13:56:09;;;;;;;3.97;2.93;;;11.00;99.80;;;;;;5116170;28;20216;-78
2023/04/07 13:58:35;;;;;;;4.00;3.07;;;10.90;99.90;;;;;;5115490;28;20172;-78
2023/04/07 14:01:01;;;;;;;4.57;2.73;;;10.80;99.90;;;;;;5116169;28;20210;-77
2023/04/07 14:03:27;;;;;;;4.63;2.83;;;10.70;99.90;;;;;;5115403;28;20622;-77
2023/04/07 14:05:53;;;;;;;4.17;2.50;;;10.70;99.90;;;;;;5115259;28;20203;-77
2023/04/07 14:08:22;;;;;;;2.67;2.47;;;10.70;99.90;;;;;;5115643;28;20526;-78
2023/04/07 14:10:48;;;;;;;3.07;2.27;;;10.70;99.90;;;;;;5115082;28;20192;-77
2023/04/07 14:13:14;;;;;;;2.93;2.53;;;10.80;99.90;;;;;;5115359;28;20234;-78
2023/04/07 14:15:40;;;;;;;5.73;2.70;;;10.80;99.90;;;;;;5114016;28;20214;-77
2023/04/07 14:18:06;;;;;;;5.27;3.13;;;10.90;99.90;;;;;;5115358;28;20251;-78
2023/04/07 14:20:32;;;;;;;4.30;2.37;;;10.90;99.90;;;;;;5113635;28;20544;-78
2023/04/07 14:22:58;;;;;;;3.17;2.77;;;11.00;99.90;;;;;;5115687;28;20191;-78
2023/04/07 14:25:23;;;;;;;4.83;2.87;;;11.00;99.90;;;;;;5115648;28;20180;-78
2023/04/07 14:27:51;;;;;;;2.70;2.13;;;11.10;99.90;;;;;;5116102;28;20183;-78
2023/04/07 14:30:17;;;;;;;4.27;2.77;;;11.30;99.90;;;;;;5113820;28;20294;-78
2023/04/07 14:32:43;;;;;;;4.00;2.90;;;11.30;99.90;;;;;;5115180;28;20196;-77
2023/04/07 14:35:09;;;;;;;3.53;3.00;;;11.30;99.90;;;;;;5114397;28;20174;-78
2023/04/07 14:37:35;;;;;;;4.67;3.07;;;11.70;99.90;;;;;;5115781;28;20195;-78
2023/04/07 14:40:04;;;;;;;3.40;2.40;;;12.00;99.90;;;;;;5115162;28;20176;-78
2023/04/07 14:42:32;;;;;;;4.63;2.43;;;11.70;99.90;;;;;;5115297;28;20274;-78
2023/04/07 14:44:59;;;;;;;4.30;2.00;;;11.70;99.90;;;;;;5116263;28;20174;-78
2023/04/07 14:47:24;;;;;;;6.17;2.80;;;11.70;99.90;;;;;;5116176;28;20171;-78
2023/04/07 14:49:51;;;;;;;3.40;2.63;;;11.90;99.90;;;;;;5116024;28;20248;-77
2023/04/07 14:52:16;;;;;;;3.03;2.30;;;12.00;99.90;;;;;;5113135;28;20230;-78
2023/04/07 14:54:42;;;;;;;4.60;2.33;;;12.10;99.90;;;;;;5116174;28;20172;-78
2023/04/07 14:57:08;;;;;;;4.77;2.70;;;12.40;99.80;;;;;;5115556;28;20178;-78
2023/04/07 14:59:33;;;;;;;4.60;2.40;;;12.60;98.30;;;;;;5116538;28;20619;-78
2023/04/07 15:01:59;;;;;;;5.33;2.37;;;13.80;96.20;;;;;;5115928;28;20171;-78
2023/04/07 15:04:25;;;;;;;4.47;2.30;;;13.80;96.30;;;;;;5115814;28;20199;-77
2023/04/07 15:06:50;;;;;;;4.53;2.00;;;13.90;94.50;;;;;;5115440;28;20175;-78
2023/04/07 15:09:17;;;;;;;3.03;2.03;;;13.30;95.20;;;;;;5113876;28;20179;-78
2023/04/07 15:11:44;;;;;;;2.90;1.87;;;;;;;;;;5114763;28;20237;-78
2023/04/07 15:14:10;;;;;;;5.10;1.97;;;12.40;96.80;;;;;;5114525;28;20498;-78
2023/04/07 15:16:36;;;;;;;4.00;2.37;;;12.30;96.10;;;;;;5113304;28;20182;-78
2023/04/07 15:19:02;;;;;;;3.13;1.80;;;12.20;97.30;;;;;;5116469;28;20168;-78
2023/04/07 15:21:27;;;;;;;2.97;1.90;;;11.90;97.00;;;;;;5117042;28;20167;-78
2023/04/07 15:23:53;;;;;;;3.47;2.20;;;11.50;97.60;;;;;;5116562;28;20540;-77
2023/04/07 15:26:19;;;;;;;4.03;2.00;;;11.40;99.00;;;;;;5116518;28;20227;-77
2023/04/07 15:28:45;;;;;;;4.50;2.27;;;11.20;98.70;;;;;;5115821;28;20189;-78
2023/04/07 15:31:11;;;;;;;2.70;2.00;;;11.00;99.30;;;;;;5117970;28;20203;-78
2023/04/07 15:33:38;;;;;;;2.80;1.80;;;10.80;99.90;;;;;;5115849;28;20340;-78
2023/04/07 15:36:07;;;;;;;4.33;2.77;;;10.80;99.90;;;;;;5117863;28;20172;-78
2023/04/07 15:38:33;;;;;;;7.47;6.67;;;10.70;99.90;;;;;;5117488;28;20182;-78
2023/04/07 15:40:59;;;;;;;7.00;6.30;;;10.70;99.90;;;;;;5115596;28;20180;-78
2023/04/07 15:43:25;;;;;;;4.80;3.67;;;10.60;99.90;;;;;;5117666;28;20188;-78
2023/04/07 15:45:53;;;;;;;5.10;2.43;;;10.60;99.90;;;;;;5115980;28;20171;-78
2023/04/07 15:48:19;;;;;;;4.67;2.83;;;10.50;99.90;;;;;;5114193;28;20183;-78
2023/04/07 15:50:45;;;;;;;6.77;4.67;;;10.50;99.90;;;;;;5115950;28;20199;-78
2023/04/07 15:53:11;;;;;;;4.40;3.77;;;10.40;99.90;;;;;;5118489;28;20195;-78
2023/04/07 15:55:36;;;;;;;6.03;2.77;;;10.40;99.90;;;;;;5119667;28;20232;-78
2023/04/07 15:58:03;;;;;;;3.57;3.10;;;10.20;99.90;;;;;;5119778;28;20566;-78
2023/04/07 16:00:32;;;;;;;3.57;3.00;;;10.10;99.90;;;;;;5122142;28;20194;-78
2023/04/07 16:02:58;;;;;;;4.40;3.80;;;10.00;99.90;;;;;;5121473;28;20195;-79
2023/04/07 16:05:23;;;;;;;4.60;3.90;;;9.90;99.90;;;;;;5123558;28;20289;-79
2023/04/07 16:07:49;;;;;;;5.50;4.20;;;9.80;99.90;;;;;;5122188;28;20228;-78
2023/04/07 16:10:18;;;;;;;8.50;5.00;;;9.70;99.90;;;;;;5122455;28;20187;-79
2023/04/07 16:12:44;;;;;;;5.00;3.43;;;9.60;99.90;;;;;;5122214;28;20199;-79
2023/04/07 16:15:10;;;;;;;3.60;3.23;;;9.60;99.90;;;;;;5121042;28;20175;-78
2023/04/07 16:17:39;;;;;;;5.10;3.53;;;9.60;99.90;;;;;;5121312;28;20179;-78
2023/04/07 16:20:13;;;;;;;5.70;3.57;;;9.50;99.90;;;;;;5117890;28;20232;-78
2023/04/07 16:22:42;;;;;;;4.70;4.00;;;9.40;99.90;;;;;;5120922;28;20555;-78
2023/04/07 16:25:08;;;;;;;4.40;3.30;;;9.40;99.90;;;;;;5121182;28;20235;-79
2023/04/07 16:27:35;;;;;;;7.13;2.77;;;9.40;99.90;;;;;;5122033;28;20673;-79
2023/04/07 16:30:04;;;;;;;3.47;2.60;;;9.30;99.90;;;;;;5124325;28;20545;-79
2023/04/07 16:32:29;;;;;;;3.60;2.53;;;9.30;99.90;;;;;;5130794;28;20184;-79
2023/04/07 16:34:55;;;;;;;3.33;2.40;;;9.20;99.90;;;;;;5130197;28;20167;-78
2023/04/07 16:37:21;;;;;;;4.30;2.20;;;9.10;99.90;;;;;;5125584;28;20167;-78
2023/04/07 17:21:55;;;;;;;5.83;4.20;;;;;;;;;;5113865;27;20275;-78
